Time;durP1;ratioP1;P1;durP2;ratioP2;P2;SDS_P1;SDS_P2;PMS_P1;PMS_P2;Temp;Humidity;BMP_temperature;BMP_pressure;BME280_temperature;BME280_humidity;BME280_pressure;Samples;Min_cycle;Max_cycle;Signal;HPM_P1;HPM_P2
2020/12/30 00:01:26;;;;;;;1.47;1.37;;;20.20;46.70;;;;;;5024435;28;20896;-67
2020/12/30 00:03:52;;;;;;;1.30;1.30;;;20.20;46.70;;;;;;5048666;28;20531;-66
2020/12/30 00:06:19;;;;;;;1.50;1.50;;;20.20;46.80;;;;;;5054489;28;20485;-67
2020/12/30 00:08:45;;;;;;;1.63;1.60;;;20.20;46.80;;;;;;5056316;28;20474;-67
2020/12/30 00:11:12;;;;;;;1.60;1.57;;;20.20;46.80;;;;;;5057077;28;20496;-66
2020/12/30 00:13:38;;;;;;;1.53;1.40;;;20.20;46.80;;;;;;5054575;28;20481;-67
2020/12/30 00:16:04;;;;;;;1.13;1.13;;;20.10;46.70;;;;;;5054050;28;20489;-67
2020/12/30 00:18:31;;;;;;;1.40;1.30;;;20.20;46.80;;;;;;5059805;28;20494;-67
2020/12/30 00:20:57;;;;;;;1.53;1.43;;;20.20;46.80;;;;;;5058875;28;20493;-67
2020/12/30 00:23:23;;;;;;;1.23;1.23;;;20.20;46.80;;;;;;5059124;28;20489;-67
2020/12/30 00:25:49;;;;;;;1.23;1.23;;;20.20;46.80;;;;;;5059281;28;20473;-67
2020/12/30 00:28:16;;;;;;;1.50;1.47;;;20.20;46.80;;;;;;5054151;28;20474;-66
2020/12/30 00:30:43;;;;;;;1.37;1.37;;;20.20;46.80;;;;;;5042462;28;20484;-67
2020/12/30 00:33:09;;;;;;;1.33;1.10;;;20.20;46.80;;;;;;5063935;28;20492;-67
2020/12/30 00:35:35;;;;;;;1.40;1.40;;;20.20;46.80;;;;;;5058248;28;20473;-67
2020/12/30 00:38:01;;;;;;;1.70;1.60;;;20.20;46.80;;;;;;5060482;28;20485;-67
2020/12/30 00:40:27;;;;;;;1.63;1.63;;;20.20;46.80;;;;;;5059241;28;20484;-67
2020/12/30 00:42:53;;;;;;;1.70;1.70;;;20.20;46.80;;;;;;5060267;28;20530;-67
2020/12/30 00:45:20;;;;;;;1.53;1.53;;;20.20;46.80;;;;;;5059641;28;21301;-67
2020/12/30 00:47:46;;;;;;;2.17;2.07;;;20.20;46.80;;;;;;5058970;28;20482;-67
2020/12/30 00:50:12;;;;;;;1.20;1.20;;;20.10;46.70;;;;;;5060311;28;20477;-67
2020/12/30 00:52:39;;;;;;;1.37;1.10;;;20.10;46.70;;;;;;5059506;28;21021;-67
2020/12/30 00:55:05;;;;;;;2.10;2.00;;;20.10;47.10;;;;;;5054923;28;21016;-66
2020/12/30 00:57:31;;;;;;;1.90;1.80;;;20.10;46.70;;;;;;5051779;28;20486;-66
2020/12/30 00:59:57;;;;;;;1.80;1.80;;;20.10;46.70;;;;;;5061201;28;20481;-66
2020/12/30 01:02:24;;;;;;;2.07;1.80;;;20.10;46.70;;;;;;5057435;28;20485;-66
2020/12/30 01:04:50;;;;;;;1.47;1.40;;;20.10;46.70;;;;;;5058618;28;20485;-66
2020/12/30 01:07:18;;;;;;;1.30;1.30;;;20.10;46.70;;;;;;5056437;28;20480;-67
2020/12/30 01:09:44;;;;;;;1.30;1.30;;;20.20;47.00;;;;;;5060532;28;20495;-67
2020/12/30 01:12:10;;;;;;;2.33;2.13;;;20.10;47.10;;;;;;5058841;28;20476;-67
2020/12/30 01:14:36;;;;;;;2.60;1.40;;;20.20;47.00;;;;;;5059801;28;21462;-67
2020/12/30 01:17:03;;;;;;;1.80;1.70;;;20.10;46.70;;;;;;5057492;28;20493;-67
2020/12/30 01:19:30;;;;;;;1.67;1.57;;;20.10;46.80;;;;;;5060008;28;20906;-67
2020/12/30 01:21:56;;;;;;;1.77;1.67;;;20.10;46.70;;;;;;5056902;28;20473;-67
2020/12/30 01:24:22;;;;;;;1.70;1.70;;;20.10;46.70;;;;;;5059878;28;20497;-66
2020/12/30 01:26:49;;;;;;;1.80;1.50;;;20.10;47.10;;;;;;5058803;28;20470;-66
2020/12/30 01:29:15;;;;;;;1.60;1.60;;;20.10;47.10;;;;;;5057764;28;21027;-66
2020/12/30 01:31:41;;;;;;;1.20;1.20;;;20.10;47.20;;;;;;5056443;28;21221;-67
2020/12/30 01:34:08;;;;;;;1.63;1.53;;;20.10;47.20;;;;;;5059408;28;20839;-67
2020/12/30 01:36:36;;;;;;;1.90;1.80;;;20.10;47.20;;;;;;5058709;28;20864;-67
2020/12/30 01:39:03;;;;;;;1.90;1.80;;;20.10;47.00;;;;;;5058477;28;20523;-67
2020/12/30 01:41:29;;;;;;;3.37;1.77;;;20.10;47.00;;;;;;5042604;28;20508;-67
2020/12/30 01:43:57;;;;;;;1.53;1.53;;;20.10;47.80;;;;;;5061037;28;20482;-65
2020/12/30 01:46:29;;;;;;;2.03;1.93;;;20.10;47.00;;;;;;5038776;28;20493;-67
2020/12/30 01:48:55;;;;;;;2.13;2.03;;;20.00;47.00;;;;;;5040626;28;20596;-67
2020/12/30 01:51:21;;;;;;;2.00;1.90;;;20.00;47.10;;;;;;5053562;28;21018;-67
2020/12/30 01:53:48;;;;;;;3.23;2.50;;;20.00;47.20;;;;;;5055384;28;20876;-67
2020/12/30 01:56:14;;;;;;;2.50;2.17;;;20.00;47.20;;;;;;5056709;28;20515;-67
2020/12/30 01:58:40;;;;;;;1.97;1.87;;;20.00;47.30;;;;;;5057930;28;21064;-67
2020/12/30 02:01:06;;;;;;;2.60;2.43;;;20.00;47.20;;;;;;5054351;28;20516;-66
2020/12/30 02:03:32;;;;;;;1.70;1.60;;;20.00;47.20;;;;;;5056785;28;20474;-66
2020/12/30 02:05:59;;;;;;;2.10;2.00;;;20.00;47.40;;;;;;5057234;28;20496;-66
2020/12/30 02:08:25;;;;;;;2.20;2.10;;;20.00;47.40;;;;;;5058771;28;20550;-67
2020/12/30 02:10:52;;;;;;;1.80;1.60;;;20.00;47.40;;;;;;5054426;28;21171;-66
2020/12/30 02:13:18;;;;;;;1.97;1.87;;;20.00;47.30;;;;;;5060696;28;20487;-66
2020/12/30 02:15:44;;;;;;;1.90;1.80;;;20.00;47.40;;;;;;5070475;28;20474;-66
2020/12/30 02:18:10;;;;;;;2.20;1.60;;;20.00;47.30;;;;;;5059037;28;20493;-67
2020/12/30 02:20:36;;;;;;;3.40;1.90;;;20.00;47.30;;;;;;5036551;28;20478;-66
2020/12/30 02:23:04;;;;;;;2.03;1.93;;;20.00;47.30;;;;;;5038442;28;20478;-67
2020/12/30 02:25:31;;;;;;;2.23;2.03;;;20.00;47.20;;;;;;5038038;28;20486;-67
2020/12/30 02:27:58;;;;;;;2.20;2.10;;;20.00;47.40;;;;;;5035729;28;20486;-66
2020/12/30 02:30:24;;;;;;;1.97;1.87;;;20.00;47.50;;;;;;5036282;28;20487;-67
2020/12/30 02:32:50;;;;;;;2.70;2.50;;;19.90;47.40;;;;;;5052940;28;21035;-66
2020/12/30 02:35:20;;;;;;;2.37;1.83;;;19.90;47.40;;;;;;5056513;28;20497;-65
2020/12/30 02:37:46;;;;;;;2.70;2.50;;;19.90;47.50;;;;;;5056658;28;20482;-66
2020/12/30 02:40:12;;;;;;;2.43;2.20;;;19.90;47.50;;;;;;5055618;28;20486;-66
2020/12/30 02:42:39;;;;;;;2.57;2.40;;;19.90;47.30;;;;;;5056484;28;20482;-67
2020/12/30 02:45:06;;;;;;;2.37;2.27;;;19.90;47.30;;;;;;5057666;28;21062;-66
2020/12/30 02:47:33;;;;;;;1.80;1.80;;;19.90;47.30;;;;;;5057163;28;20481;-66
2020/12/30 02:49:59;;;;;;;2.30;2.20;;;19.90;47.40;;;;;;5058125;28;20497;-66
2020/12/30 02:52:25;;;;;;;2.00;1.90;;;19.90;47.20;;;;;;5057410;28;20923;-66
2020/12/30 02:54:51;;;;;;;2.30;2.20;;;19.90;47.30;;;;;;5056283;28;21040;-67
2020/12/30 02:57:17;;;;;;;2.80;2.40;;;19.90;47.40;;;;;;5058211;28;20482;-67
2020/12/30 02:59:44;;;;;;;2.17;2.07;;;19.90;47.40;;;;;;5057431;28;20474;-67
2020/12/30 03:02:10;;;;;;;2.20;2.10;;;19.90;47.40;;;;;;5048644;28;20499;-66
2020/12/30 03:04:37;;;;;;;1.73;1.63;;;19.90;47.70;;;;;;5059420;28;20485;-67
2020/12/30 03:07:03;;;;;;;1.90;1.80;;;19.90;47.70;;;;;;5056919;28;20478;-66
2020/12/30 03:09:29;;;;;;;3.20;3.00;;;19.90;47.70;;;;;;5055465;28;20681;-66
2020/12/30 03:11:55;;;;;;;1.73;1.63;;;19.90;47.80;;;;;;5056879;28;20478;-67
2020/12/30 03:14:21;;;;;;;2.63;2.40;;;20.00;47.70;;;;;;5057490;28;20477;-67
2020/12/30 03:16:48;;;;;;;2.40;2.20;;;20.00;47.90;;;;;;5057638;28;22177;-67
2020/12/30 03:19:14;;;;;;;2.47;2.37;;;20.00;47.50;;;;;;5056876;28;20477;-67
2020/12/30 03:21:41;;;;;;;2.20;2.10;;;20.00;47.40;;;;;;5056733;28;20470;-67
2020/12/30 03:24:07;;;;;;;2.27;2.17;;;19.90;47.30;;;;;;5055792;28;21009;-67
2020/12/30 03:26:34;;;;;;;2.40;2.30;;;19.90;47.30;;;;;;5057693;28;20861;-67
2020/12/30 03:29:01;;;;;;;4.33;2.37;;;19.90;47.30;;;;;;5055331;28;20478;-66
2020/12/30 03:31:28;;;;;;;2.20;2.07;;;19.90;47.30;;;;;;5055786;28;20480;-67
2020/12/30 03:33:55;;;;;;;2.00;1.90;;;19.90;47.40;;;;;;5057081;28;20561;-67
2020/12/30 03:36:21;;;;;;;2.47;2.37;;;19.90;47.40;;;;;;5045799;28;21111;-67
2020/12/30 03:38:47;;;;;;;3.17;2.27;;;19.80;47.30;;;;;;5056702;28;21481;-67
2020/12/30 03:41:13;;;;;;;1.80;1.70;;;19.90;47.40;;;;;;5057299;28;20993;-67
2020/12/30 03:43:39;;;;;;;1.73;1.67;;;19.90;47.40;;;;;;5047097;28;20884;-68
2020/12/30 03:46:06;;;;;;;1.77;1.67;;;19.90;47.60;;;;;;5063501;28;20485;-68
2020/12/30 03:48:32;;;;;;;4.17;2.30;;;19.90;47.60;;;;;;5049289;28;20508;-67
2020/12/30 03:50:59;;;;;;;2.10;2.00;;;20.00;47.80;;;;;;5062466;28;20500;-67
2020/12/30 03:53:25;;;;;;;2.53;2.30;;;20.00;47.60;;;;;;5061103;28;20476;-67
2020/12/30 03:55:51;;;;;;;3.10;2.30;;;20.00;47.50;;;;;;5066046;28;20489;-68
2020/12/30 03:58:17;;;;;;;2.93;2.23;;;20.00;47.30;;;;;;5060707;28;21317;-68
2020/12/30 04:00:43;;;;;;;1.73;1.63;;;19.90;47.30;;;;;;5060087;28;21768;-67
2020/12/30 04:03:10;;;;;;;2.10;2.00;;;19.90;47.30;;;;;;5051752;28;20478;-67
2020/12/30 04:05:36;;;;;;;2.13;2.03;;;19.90;47.40;;;;;;5060110;28;20490;-67
2020/12/30 04:08:03;;;;;;;2.73;2.53;;;19.90;47.30;;;;;;5060202;28;20492;-67
2020/12/30 04:10:29;;;;;;;2.53;2.43;;;19.90;47.00;;;;;;5050885;28;20480;-66
2020/12/30 04:12:55;;;;;;;2.83;2.70;;;20.00;46.90;;;;;;5066903;28;20555;-67
2020/12/30 04:15:21;;;;;;;2.30;2.20;;;19.90;46.60;;;;;;5060277;28;20489;-67
2020/12/30 04:17:47;;;;;;;2.70;2.60;;;20.00;46.60;;;;;;5061317;28;20523;-67
2020/12/30 04:20:13;;;;;;;2.90;2.70;;;20.10;46.70;;;;;;5059038;28;20489;-67
2020/12/30 04:22:40;;;;;;;2.30;2.20;;;20.10;46.70;;;;;;5059800;28;20485;-67
2020/12/30 04:25:07;;;;;;;2.33;2.23;;;20.10;46.70;;;;;;5060840;28;20929;-67
2020/12/30 04:27:33;;;;;;;2.40;2.10;;;20.20;46.80;;;;;;5060527;28;20496;-67
2020/12/30 04:29:59;;;;;;;3.33;2.37;;;20.20;46.80;;;;;;5060592;28;20486;-67
2020/12/30 04:32:25;;;;;;;3.30;2.17;;;20.20;46.80;;;;;;5058844;28;20485;-67
2020/12/30 04:34:51;;;;;;;2.20;2.10;;;20.20;46.60;;;;;;5058070;28;20493;-67
2020/12/30 04:37:17;;;;;;;2.33;2.23;;;20.20;46.60;;;;;;5060491;28;20986;-67
2020/12/30 04:39:43;;;;;;;2.20;2.10;;;20.20;46.40;;;;;;5060274;28;20489;-67
2020/12/30 04:42:10;;;;;;;2.77;2.67;;;20.20;46.40;;;;;;5059574;28;20486;-66
2020/12/30 04:44:40;;;;;;;2.57;2.47;;;20.20;46.40;;;;;;5060496;28;20482;-67
2020/12/30 04:47:06;;;;;;;2.60;2.50;;;20.20;46.50;;;;;;5059240;28;20481;-67
2020/12/30 04:49:32;;;;;;;2.17;2.07;;;20.10;46.40;;;;;;5057065;28;20481;-67
2020/12/30 04:51:58;;;;;;;2.50;2.40;;;20.20;46.50;;;;;;5051949;28;20490;-67
2020/12/30 04:54:24;;;;;;;2.20;2.10;;;20.10;46.50;;;;;;5061697;28;20489;-66
2020/12/30 04:56:57;;;;;;;2.50;2.40;;;20.10;46.60;;;;;;5066510;28;21970;-67
2020/12/30 04:59:26;;;;;;;2.50;2.40;;;20.10;46.60;;;;;;5047477;28;20501;-67
2020/12/30 05:01:59;;;;;;;2.47;2.33;;;20.10;46.70;;;;;;5024850;28;20930;-67
2020/12/30 05:04:26;;;;;;;2.90;2.70;;;20.10;46.70;;;;;;5026531;28;21585;-67
2020/12/30 05:06:52;;;;;;;2.80;2.37;;;20.10;46.70;;;;;;5037624;28;20515;-67
2020/12/30 05:09:18;;;;;;;1.80;1.80;;;20.10;46.80;;;;;;5040591;28;20482;-67
2020/12/30 05:11:44;;;;;;;2.50;2.40;;;20.10;46.70;;;;;;5034054;28;20529;-66
2020/12/30 05:14:11;;;;;;;2.30;2.10;;;20.10;46.70;;;;;;5039370;28;20556;-66
2020/12/30 05:16:38;;;;;;;2.17;2.07;;;20.20;46.80;;;;;;5038972;28;20561;-67
2020/12/30 05:19:04;;;;;;;3.27;2.43;;;20.10;46.70;;;;;;5039736;28;20505;-67
2020/12/30 05:21:31;;;;;;;2.73;2.53;;;20.10;46.70;;;;;;5038921;28;21006;-67
2020/12/30 05:23:57;;;;;;;2.50;2.40;;;20.20;46.70;;;;;;5035515;28;20491;-66
2020/12/30 05:26:23;;;;;;;2.73;2.60;;;20.20;46.70;;;;;;5040170;28;21076;-67
2020/12/30 05:28:50;;;;;;;2.43;2.33;;;20.20;46.50;;;;;;5036266;28;20475;-67
2020/12/30 05:31:16;;;;;;;2.70;2.60;;;20.20;46.40;;;;;;5037627;28;20871;-67
2020/12/30 05:33:43;;;;;;;2.20;2.10;;;20.30;46.50;;;;;;5035354;28;20494;-66
2020/12/30 05:36:10;;;;;;;2.63;2.43;;;20.30;46.40;;;;;;5030807;28;20489;-66
2020/12/30 05:38:36;;;;;;;2.30;2.20;;;20.30;46.40;;;;;;5050164;28;21043;-66
2020/12/30 05:41:02;;;;;;;2.23;2.13;;;20.30;46.40;;;;;;5040532;28;20857;-66
2020/12/30 05:43:28;;;;;;;2.17;2.07;;;20.30;46.30;;;;;;5028625;28;20486;-66
2020/12/30 05:45:55;;;;;;;2.20;2.10;;;20.30;46.40;;;;;;5040508;28;20470;-66
2020/12/30 05:48:21;;;;;;;2.23;2.13;;;20.30;46.30;;;;;;5038758;28;20463;-66
2020/12/30 05:50:49;;;;;;;2.20;2.10;;;20.30;46.40;;;;;;5040259;28;20482;-67
2020/12/30 05:53:15;;;;;;;3.00;2.50;;;20.30;46.40;;;;;;5041553;28;20475;-65
2020/12/30 05:55:41;;;;;;;2.60;2.50;;;20.30;46.30;;;;;;5041058;28;20474;-66
2020/12/30 05:58:08;;;;;;;2.30;2.20;;;20.30;46.40;;;;;;5036424;28;20973;-67
2020/12/30 06:00:34;;;;;;;2.60;2.50;;;20.20;46.20;;;;;;5037360;28;20462;-67
2020/12/30 06:03:00;;;;;;;2.10;1.93;;;20.20;46.20;;;;;;5036945;28;20479;-66
2020/12/30 06:05:28;;;;;;;2.20;2.10;;;20.20;46.20;;;;;;5036368;28;20486;-68
2020/12/30 06:07:55;;;;;;;2.40;2.30;;;20.20;46.20;;;;;;5038547;28;20509;-67
2020/12/30 06:10:22;;;;;;;2.50;2.30;;;20.30;47.00;;;;;;5028299;28;20907;-67
2020/12/30 06:12:52;;;;;;;2.50;2.40;;;20.30;46.30;;;;;;5020505;28;20485;-67
2020/12/30 06:15:19;;;;;;;2.57;2.47;;;20.30;46.40;;;;;;5028489;28;20553;-67
2020/12/30 06:17:56;;;;;;;3.00;2.20;;;20.30;46.20;;;;;;5035289;28;20487;-67
2020/12/30 06:20:24;;;;;;;2.27;2.17;;;20.30;46.20;;;;;;5027033;28;20467;-67
2020/12/30 06:22:53;;;;;;;2.80;2.60;;;20.30;46.20;;;;;;5037656;28;20554;-66
2020/12/30 06:25:20;;;;;;;2.57;2.43;;;20.30;46.10;;;;;;5037539;28;20487;-67
2020/12/30 06:27:47;;;;;;;1.97;1.90;;;20.30;46.10;;;;;;5038620;28;20562;-67
2020/12/30 06:30:14;;;;;;;1.90;1.50;;;20.30;46.10;;;;;;5034989;28;20490;-67
2020/12/30 06:32:40;;;;;;;2.60;2.23;;;20.40;46.10;;;;;;5035716;28;21548;-67
2020/12/30 06:35:06;;;;;;;2.50;2.37;;;20.40;46.10;;;;;;5046758;28;20489;-67
2020/12/30 06:37:34;;;;;;;4.60;2.33;;;20.40;46.20;;;;;;5056973;28;20554;-66
2020/12/30 06:40:26;;;;;;;2.23;2.03;;;20.40;46.80;;;;;;5056058;28;20485;-67
2020/12/30 06:42:55;;;;;;;2.43;2.33;;;20.40;46.00;;;;;;5042457;28;20563;-68
2020/12/30 06:45:50;;;;;;;2.33;2.23;;;20.40;46.60;;;;;;5050530;28;20468;-67
2020/12/30 06:48:16;;;;;;;2.33;2.23;;;20.40;46.00;;;;;;5057207;28;20469;-66
2020/12/30 06:50:42;;;;;;;2.03;1.93;;;20.40;46.10;;;;;;5058370;28;21166;-67
2020/12/30 06:53:26;;;;;;;2.47;2.37;;;20.30;46.00;;;;;;5057156;28;22337;-68
2020/12/30 06:55:53;;;;;;;2.60;1.90;;;20.30;46.00;;;;;;5057013;28;20474;-67
2020/12/30 06:58:44;;;;;;;2.13;1.93;;;20.30;46.00;;;;;;5053853;28;20468;-66
2020/12/30 07:01:11;;;;;;;1.80;1.70;;;20.30;46.10;;;;;;5054997;28;20474;-67
2020/12/30 07:03:37;;;;;;;2.17;2.07;;;20.30;46.00;;;;;;5046509;28;20588;-67
2020/12/30 07:06:22;;;;;;;1.90;1.70;;;20.30;46.00;;;;;;5070540;28;20482;-66
2020/12/30 07:08:48;;;;;;;2.93;2.77;;;20.30;46.00;;;;;;5056390;28;20528;-66
2020/12/30 07:11:48;;;;;;;2.13;2.03;;;20.30;46.00;;;;;;5057723;28;20478;-66
2020/12/30 07:14:14;;;;;;;3.63;2.30;;;20.40;46.10;;;;;;5056313;28;20489;-66
2020/12/30 07:16:41;;;;;;;2.60;2.40;;;20.30;46.10;;;;;;5057536;28;20474;-67
2020/12/30 07:19:15;;;;;;;1.70;1.60;;;20.40;46.20;;;;;;5055676;28;21111;-67
2020/12/30 07:22:01;;;;;;;2.17;2.07;;;20.40;46.00;;;;;;5048156;28;20486;-67
2020/12/30 07:24:29;;;;;;;1.70;1.60;;;20.40;46.10;;;;;;5051053;28;20468;-67
2020/12/30 07:26:57;;;;;;;2.27;1.93;;;20.40;46.00;;;;;;5064012;28;20474;-66
2020/12/30 07:29:23;;;;;;;2.07;1.97;;;20.40;46.00;;;;;;5045437;28;20477;-67
2020/12/30 07:31:51;;;;;;;3.30;2.10;;;20.40;46.00;;;;;;5056564;28;21002;-67
2020/12/30 07:34:18;;;;;;;1.80;1.70;;;20.30;46.10;;;;;;5053026;28;21390;-68
2020/12/30 07:36:45;;;;;;;2.30;2.10;;;20.30;46.20;;;;;;5051975;28;20493;-67
2020/12/30 07:39:11;;;;;;;2.00;1.90;;;20.30;46.20;;;;;;5065597;28;20490;-67
2020/12/30 07:41:37;;;;;;;2.27;2.13;;;20.30;46.30;;;;;;5056339;28;20539;-67
2020/12/30 07:44:04;;;;;;;2.20;2.10;;;20.30;46.20;;;;;;5056582;28;20493;-67
2020/12/30 07:46:30;;;;;;;2.40;2.30;;;20.20;46.20;;;;;;5055933;28;20871;-67
2020/12/30 07:49:07;;;;;;;2.87;2.67;;;20.20;46.20;;;;;;5050660;28;20477;-67
2020/12/30 07:51:33;;;;;;;2.87;2.60;;;20.20;46.20;;;;;;5059542;28;20484;-66
2020/12/30 07:53:59;;;;;;;2.13;2.03;;;20.10;46.20;;;;;;5056249;28;20482;-67
2020/12/30 07:56:26;;;;;;;3.07;2.83;;;20.10;46.20;;;;;;5057879;28;20496;-68
2020/12/30 07:58:52;;;;;;;1.57;1.57;;;20.10;46.10;;;;;;5055279;28;20480;-67
2020/12/30 08:01:19;;;;;;;2.63;2.43;;;20.10;46.20;;;;;;5057207;28;20486;-67
2020/12/30 08:03:45;;;;;;;2.53;2.33;;;20.10;46.10;;;;;;5053526;28;20511;-67
2020/12/30 08:06:11;;;;;;;2.60;2.50;;;20.20;46.30;;;;;;5057379;28;20484;-67
2020/12/30 08:08:42;;;;;;;1.80;1.70;;;20.20;46.30;;;;;;5055492;28;20474;-68
2020/12/30 08:11:08;;;;;;;2.03;1.93;;;20.20;46.30;;;;;;5049094;28;21257;-67
2020/12/30 08:13:38;;;;;;;3.57;1.80;;;20.20;46.20;;;;;;5053437;28;20922;-67
2020/12/30 08:16:04;;;;;;;2.20;2.10;;;20.20;46.40;;;;;;5056070;28;20893;-68
2020/12/30 08:18:31;;;;;;;2.47;2.30;;;20.20;46.40;;;;;;5054776;28;20481;-67
2020/12/30 08:20:58;;;;;;;2.33;2.07;;;20.20;46.30;;;;;;5057654;28;20919;-68
2020/12/30 08:23:24;;;;;;;1.77;1.77;;;20.20;46.30;;;;;;5045475;28;21092;-67
2020/12/30 08:25:50;;;;;;;1.83;1.60;;;20.20;46.30;;;;;;5057151;28;20497;-68
2020/12/30 08:28:16;;;;;;;2.30;1.83;;;20.10;46.10;;;;;;5039751;28;20473;-67
2020/12/30 08:30:43;;;;;;;2.00;1.90;;;20.10;46.20;;;;;;5045829;28;20483;-67
2020/12/30 08:33:10;;;;;;;2.60;2.40;;;20.10;46.10;;;;;;5034324;28;20483;-67
2020/12/30 08:35:39;;;;;;;2.07;1.97;;;20.10;46.20;;;;;;5049158;28;20994;-67
2020/12/30 08:38:11;;;;;;;2.03;1.93;;;20.10;46.10;;;;;;5058590;28;20493;-67
2020/12/30 08:40:38;;;;;;;2.13;1.70;;;20.10;46.10;;;;;;5059633;28;20479;-67
2020/12/30 08:43:19;;;;;;;2.33;2.23;;;20.10;46.20;;;;;;5060744;28;21055;-68
2020/12/30 08:46:02;;;;;;;2.40;2.30;;;20.10;47.00;;;;;;5058469;28;20986;-67
2020/12/30 08:48:31;;;;;;;2.50;2.40;;;20.10;46.30;;;;;;5051539;28;20484;-67
2020/12/30 08:50:58;;;;;;;2.50;2.40;;;20.10;46.50;;;;;;5060672;28;20495;-66
2020/12/30 08:53:33;;;;;;;2.40;2.30;;;20.00;46.30;;;;;;5059576;28;20573;-67
2020/12/30 08:55:59;;;;;;;2.40;2.20;;;20.10;46.40;;;;;;5054772;28;20480;-67
2020/12/30 08:58:25;;;;;;;2.43;2.30;;;20.00;46.30;;;;;;5058660;28;20472;-67
2020/12/30 09:00:51;;;;;;;2.30;2.10;;;20.10;46.40;;;;;;5058816;28;20996;-67
2020/12/30 09:03:18;;;;;;;2.30;2.10;;;20.10;46.50;;;;;;5057294;28;20577;-67
2020/12/30 09:05:50;;;;;;;1.93;1.83;;;20.10;46.50;;;;;;5057626;28;20477;-66
2020/12/30 09:08:18;;;;;;;2.00;1.90;;;20.10;46.40;;;;;;5059570;28;20852;-67
2020/12/30 09:10:45;;;;;;;2.10;2.10;;;20.10;46.70;;;;;;5049607;28;20484;-67
2020/12/30 09:13:11;;;;;;;1.73;1.70;;;20.10;46.70;;;;;;5048155;28;20486;-67
2020/12/30 09:15:37;;;;;;;2.30;2.10;;;20.10;46.70;;;;;;5054137;28;20478;-67
2020/12/30 09:18:04;;;;;;;2.10;2.00;;;20.10;46.70;;;;;;5058876;28;20481;-67
2020/12/30 09:20:31;;;;;;;1.93;1.83;;;20.10;46.70;;;;;;5060119;28;20490;-67
2020/12/30 09:22:59;;;;;;;2.60;2.50;;;20.10;46.70;;;;;;5059457;28;20470;-67
2020/12/30 09:25:26;;;;;;;2.17;2.00;;;20.10;46.70;;;;;;5059751;28;20871;-66
2020/12/30 09:27:52;;;;;;;2.17;2.07;;;20.10;46.60;;;;;;5050476;28;20516;-67
2020/12/30 09:30:20;;;;;;;2.60;2.40;;;20.20;46.80;;;;;;5060802;28;20525;-67
2020/12/30 09:32:46;;;;;;;2.37;2.27;;;20.20;46.80;;;;;;5053376;28;20476;-66
2020/12/30 09:35:13;;;;;;;2.90;2.57;;;20.20;46.40;;;;;;5048599;28;20490;-66
2020/12/30 09:37:40;;;;;;;2.23;2.13;;;20.10;46.50;;;;;;5056001;28;20848;-68
2020/12/30 09:40:10;;;;;;;2.30;2.10;;;20.10;46.50;;;;;;5064912;28;20500;-67
2020/12/30 09:42:37;;;;;;;3.30;2.50;;;20.10;46.50;;;;;;5057345;28;20529;-67
2020/12/30 09:45:04;;;;;;;2.10;2.00;;;20.10;46.60;;;;;;5059203;28;20543;-67
2020/12/30 09:47:31;;;;;;;2.40;2.30;;;20.10;46.40;;;;;;5055588;28;20484;-67
2020/12/30 09:49:57;;;;;;;2.50;2.40;;;20.10;46.40;;;;;;5057885;28;20489;-67
2020/12/30 09:52:23;;;;;;;2.07;1.87;;;20.10;46.30;;;;;;5057660;28;20481;-67
2020/12/30 09:54:49;;;;;;;3.40;3.10;;;20.10;46.30;;;;;;5049120;28;21376;-67
2020/12/30 09:57:15;;;;;;;2.20;2.07;;;20.10;46.40;;;;;;5064588;28;21089;-67
2020/12/30 09:59:43;;;;;;;2.50;2.40;;;20.10;46.40;;;;;;5059217;28;20486;-67
2020/12/30 10:02:10;;;;;;;2.20;2.10;;;20.00;46.30;;;;;;5057119;28;21298;-66
2020/12/30 10:04:36;;;;;;;4.23;2.93;;;20.00;46.50;;;;;;5056974;28;20477;-67
2020/12/30 10:07:02;;;;;;;2.47;2.37;;;20.10;46.40;;;;;;5054708;28;20474;-67
2020/12/30 10:09:28;;;;;;;2.70;2.53;;;20.10;46.40;;;;;;5055772;28;20497;-66
2020/12/30 10:11:54;;;;;;;2.47;2.37;;;20.10;46.50;;;;;;5058195;28;20482;-67
2020/12/30 10:14:21;;;;;;;2.60;1.97;;;20.10;46.50;;;;;;5058661;28;20488;-67
2020/12/30 10:16:48;;;;;;;2.40;2.30;;;20.10;46.70;;;;;;5057371;28;20516;-67
2020/12/30 10:19:14;;;;;;;2.80;2.60;;;20.10;46.50;;;;;;5057977;28;20503;-66
2020/12/30 10:21:41;;;;;;;2.80;2.60;;;20.10;46.70;;;;;;5058863;28;20493;-66
2020/12/30 10:24:07;;;;;;;2.90;2.70;;;20.10;46.70;;;;;;5056935;28;20498;-66
2020/12/30 10:26:33;;;;;;;2.30;2.20;;;20.10;46.40;;;;;;5058614;28;20490;-66
2020/12/30 10:28:59;;;;;;;2.87;2.77;;;20.10;46.40;;;;;;5061234;28;21046;-66
2020/12/30 10:31:25;;;;;;;2.27;2.07;;;20.00;46.30;;;;;;5057572;28;21204;-65
2020/12/30 10:33:52;;;;;;;3.40;3.20;;;20.00;46.30;;;;;;5057247;28;20504;-66
2020/12/30 10:36:19;;;;;;;2.80;2.63;;;20.00;46.40;;;;;;5050433;28;20573;-66
2020/12/30 10:38:45;;;;;;;3.03;2.70;;;20.00;46.50;;;;;;5061400;28;20499;-66
2020/12/30 10:41:15;;;;;;;3.73;3.43;;;20.00;46.60;;;;;;5057283;28;20497;-66
2020/12/30 10:43:42;;;;;;;3.47;3.17;;;19.90;46.20;;;;;;5057630;28;20486;-67
2020/12/30 10:46:11;;;;;;;2.77;2.67;;;20.00;46.40;;;;;;5058376;28;20524;-67
2020/12/30 10:48:39;;;;;;;3.17;2.97;;;20.00;46.40;;;;;;5055927;28;20560;-67
2020/12/30 10:51:10;;;;;;;3.10;2.90;;;20.00;46.30;;;;;;5058382;28;20481;-67
2020/12/30 10:53:36;;;;;;;3.30;3.10;;;19.90;46.30;;;;;;5056206;28;21071;-66
2020/12/30 10:56:02;;;;;;;3.20;2.90;;;19.90;46.40;;;;;;5049750;28;20493;-67
2020/12/30 10:58:29;;;;;;;3.20;3.00;;;19.90;46.40;;;;;;5059021;28;20473;-67
2020/12/30 11:00:55;;;;;;;2.63;2.53;;;19.90;46.40;;;;;;5047659;28;20588;-66
2020/12/30 11:03:21;;;;;;;2.13;2.03;;;20.00;46.50;;;;;;5060046;28;20632;-67
2020/12/30 11:05:48;;;;;;;2.80;2.60;;;20.00;46.50;;;;;;5056559;28;20547;-67
2020/12/30 11:08:15;;;;;;;3.63;3.43;;;20.00;46.60;;;;;;5051099;28;20488;-68
2020/12/30 11:10:41;;;;;;;3.17;2.97;;;20.00;46.60;;;;;;5060817;28;20478;-66
2020/12/30 11:13:07;;;;;;;2.10;2.00;;;20.00;46.60;;;;;;5055339;28;21027;-67
2020/12/30 11:15:35;;;;;;;2.53;2.43;;;20.00;46.60;;;;;;5056527;28;22002;-67
2020/12/30 11:18:01;;;;;;;3.37;3.17;;;20.00;46.70;;;;;;5054913;28;20547;-67
2020/12/30 11:20:27;;;;;;;2.73;2.53;;;20.00;46.40;;;;;;5058039;28;20478;-67
2020/12/30 11:22:53;;;;;;;2.97;2.77;;;20.00;46.30;;;;;;5055505;28;20488;-67
2020/12/30 11:25:20;;;;;;;2.70;2.60;;;20.00;46.40;;;;;;5061595;28;20489;-67
2020/12/30 11:27:47;;;;;;;3.37;3.10;;;20.00;46.40;;;;;;5055632;28;20481;-67
2020/12/30 11:30:13;;;;;;;2.60;2.40;;;20.00;46.60;;;;;;5057158;28;20517;-66
2020/12/30 11:32:40;;;;;;;2.90;2.70;;;20.00;46.60;;;;;;5056166;28;20470;-68
2020/12/30 11:35:07;;;;;;;2.20;2.10;;;20.00;46.60;;;;;;5056109;28;21223;-67
2020/12/30 11:37:33;;;;;;;2.50;2.33;;;20.00;46.60;;;;;;5057376;28;20490;-67
2020/12/30 11:39:59;;;;;;;2.50;2.30;;;20.00;46.60;;;;;;5055967;28;21020;-67
2020/12/30 11:42:26;;;;;;;2.17;2.07;;;20.00;46.60;;;;;;5060117;28;20841;-67
2020/12/30 11:44:52;;;;;;;2.27;2.17;;;20.10;46.60;;;;;;5056861;28;20486;-67
2020/12/30 11:47:18;;;;;;;2.50;2.13;;;20.00;46.60;;;;;;5056061;28;20482;-67
2020/12/30 11:49:44;;;;;;;2.67;2.47;;;20.00;46.60;;;;;;5055114;28;20481;-67
2020/12/30 11:52:11;;;;;;;3.00;2.70;;;20.00;46.50;;;;;;5056051;28;21309;-67
2020/12/30 11:54:37;;;;;;;2.80;2.70;;;20.00;46.50;;;;;;5054855;28;21074;-67
2020/12/30 11:57:04;;;;;;;2.57;2.37;;;20.00;46.20;;;;;;5055935;28;20863;-67
2020/12/30 11:59:31;;;;;;;2.70;2.60;;;20.00;46.30;;;;;;5056789;28;20478;-66
2020/12/30 12:01:57;;;;;;;2.77;2.67;;;20.00;46.30;;;;;;5056782;28;20489;-67
2020/12/30 12:04:23;;;;;;;2.40;2.30;;;20.00;46.60;;;;;;5055121;28;20477;-67
2020/12/30 12:06:50;;;;;;;2.70;2.60;;;20.00;46.60;;;;;;5056295;28;20996;-67
2020/12/30 12:09:16;;;;;;;2.53;2.40;;;20.00;46.60;;;;;;5060570;28;20568;-66
2020/12/30 12:11:42;;;;;;;2.90;2.70;;;20.00;46.60;;;;;;5045915;28;20906;-67
2020/12/30 12:14:08;;;;;;;3.23;3.03;;;20.10;46.70;;;;;;5064481;28;20477;-67
2020/12/30 12:16:35;;;;;;;2.93;2.73;;;20.00;46.50;;;;;;5059483;28;20534;-67
2020/12/30 12:19:01;;;;;;;2.50;2.40;;;20.00;46.40;;;;;;5059980;28;20492;-67
2020/12/30 12:21:27;;;;;;;2.60;2.40;;;20.00;46.40;;;;;;5058206;28;21008;-67
2020/12/30 12:23:53;;;;;;;2.30;2.20;;;20.00;46.40;;;;;;5061043;28;20469;-67
2020/12/30 12:26:23;;;;;;;2.77;2.57;;;20.00;46.50;;;;;;5060239;28;20486;-67
2020/12/30 12:29:00;;;;;;;2.30;2.20;;;19.90;46.50;;;;;;5060191;28;20473;-66
2020/12/30 12:31:26;;;;;;;3.60;3.30;;;19.90;46.50;;;;;;5054461;28;20480;-68
2020/12/30 12:33:53;;;;;;;2.90;2.70;;;19.90;46.50;;;;;;5056319;28;22071;-67
2020/12/30 12:36:20;;;;;;;2.30;2.20;;;19.90;46.50;;;;;;5061846;28;20489;-65
2020/12/30 12:38:46;;;;;;;2.60;2.50;;;20.00;46.70;;;;;;5064748;28;20469;-67
2020/12/30 12:41:13;;;;;;;4.93;2.83;;;20.00;46.60;;;;;;5066269;28;21267;-67
2020/12/30 12:43:40;;;;;;;2.90;2.30;;;19.90;46.50;;;;;;5059463;28;21147;-67
2020/12/30 12:46:12;;;;;;;2.93;2.67;;;19.90;46.60;;;;;;5058482;28;21073;-67
2020/12/30 12:48:39;;;;;;;2.50;2.40;;;19.90;46.50;;;;;;5058227;28;20540;-67